createdAt,value
2022-11-16T00:02:22.174Z,11.50
2022-11-16T00:04:49.043Z,11.50
2022-11-16T00:07:15.911Z,11.50
2022-11-16T00:09:42.660Z,11.50
2022-11-16T00:12:11.168Z,11.40
2022-11-16T00:14:38.116Z,11.50
2022-11-16T00:17:04.988Z,11.50
2022-11-16T00:19:32.126Z,11.50
2022-11-16T00:21:58.991Z,11.50
2022-11-16T00:24:25.718Z,11.50
2022-11-16T00:26:54.780Z,11.50
2022-11-16T00:29:24.169Z,11.50
2022-11-16T00:31:51.646Z,11.50
2022-11-16T00:34:18.773Z,11.60
2022-11-16T00:36:46.637Z,11.50
2022-11-16T00:39:15.315Z,11.60
2022-11-16T00:41:43.131Z,11.50
2022-11-16T00:44:10.978Z,11.60
2022-11-16T00:46:38.003Z,11.50
2022-11-16T00:49:05.762Z,11.60
2022-11-16T00:51:33.858Z,11.50
2022-11-16T00:54:01.015Z,11.60
2022-11-16T00:56:27.753Z,11.60
2022-11-16T00:58:54.498Z,11.60
2022-11-16T01:01:21.342Z,11.60
2022-11-16T01:03:48.116Z,11.60
2022-11-16T01:06:16.174Z,11.60
2022-11-16T01:08:43.965Z,11.60
2022-11-16T01:11:32.692Z,11.60
2022-11-16T01:14:03.245Z,11.60
2022-11-16T01:16:38.874Z,11.60
2022-11-16T01:19:06.289Z,11.60
2022-11-16T01:21:34.039Z,11.60
2022-11-16T01:24:00.945Z,11.60
2022-11-16T01:26:27.807Z,11.60
2022-11-16T01:28:54.575Z,11.60
2022-11-16T01:31:21.417Z,11.60
2022-11-16T01:33:48.182Z,11.70
2022-11-16T01:36:15.615Z,11.60
2022-11-16T01:38:44.093Z,11.60
2022-11-16T01:41:16.088Z,11.60
2022-11-16T01:43:58.441Z,11.70
2022-11-16T01:46:26.202Z,11.70
2022-11-16T01:49:13.444Z,11.70
2022-11-16T01:51:44.230Z,11.70
2022-11-16T01:54:13.853Z,11.70
2022-11-16T01:56:42.465Z,11.70
2022-11-16T01:59:09.889Z,11.70
2022-11-16T02:01:36.617Z,11.70
2022-11-16T02:04:03.435Z,11.70
2022-11-16T02:06:43.401Z,11.70
2022-11-16T02:09:47.611Z,11.70
2022-11-16T02:12:42.079Z,11.70
2022-11-16T02:15:36.457Z,11.70
2022-11-16T02:18:27.556Z,11.70
2022-11-16T02:21:15.112Z,11.70
2022-11-16T02:23:47.817Z,11.70
2022-11-16T02:26:39.200Z,11.70
2022-11-16T02:29:44.958Z,11.70
2022-11-16T02:32:14.724Z,11.70
2022-11-16T02:34:53.519Z,11.70
2022-11-16T02:37:24.547Z,11.70
2022-11-16T02:39:56.917Z,11.70
2022-11-16T02:42:34.632Z,11.70
2022-11-16T02:45:03.454Z,11.70
2022-11-16T02:47:34.049Z,11.80
2022-11-16T02:50:09.090Z,11.70
2022-11-16T02:52:36.941Z,11.70
2022-11-16T02:55:03.998Z,11.70
2022-11-16T02:57:39.420Z,11.80
2022-11-16T03:00:10.816Z,11.70
2022-11-16T03:02:48.753Z,11.70
2022-11-16T03:05:21.581Z,11.70
2022-11-16T03:08:00.998Z,11.70
2022-11-16T03:10:46.722Z,11.70
2022-11-16T03:13:15.298Z,11.70
2022-11-16T03:15:43.004Z,11.70
2022-11-16T03:18:14.646Z,11.70
2022-11-16T03:20:43.939Z,11.70
2022-11-16T03:23:12.666Z,11.60
2022-11-16T03:25:52.666Z,11.60
2022-11-16T03:28:29.346Z,11.60
2022-11-16T03:31:02.546Z,11.60
2022-11-16T03:33:34.523Z,11.60
2022-11-16T03:36:15.489Z,11.60
2022-11-16T03:38:44.203Z,11.60
2022-11-16T03:41:12.290Z,11.60
2022-11-16T03:43:40.455Z,11.60
2022-11-16T03:46:07.258Z,11.60
2022-11-16T03:48:39.559Z,11.60
2022-11-16T03:51:09.161Z,11.60
2022-11-16T03:53:36.366Z,11.60
2022-11-16T03:56:03.301Z,11.50
2022-11-16T03:58:30.541Z,11.50
2022-11-16T04:00:57.556Z,11.50
2022-11-16T04:03:24.444Z,11.50
2022-11-16T04:06:09.714Z,11.50
2022-11-16T04:08:55.068Z,11.50
2022-11-16T04:11:41.512Z,11.50
2022-11-16T04:14:33.447Z,11.50
2022-11-16T04:17:18.699Z,11.50
2022-11-16T04:20:04.287Z,11.40
2022-11-16T04:23:02.228Z,11.40
2022-11-16T04:25:32.601Z,11.40
2022-11-16T04:28:14.615Z,11.40
2022-11-16T04:31:02.237Z,11.40
2022-11-16T04:33:49.007Z,11.30
2022-11-16T04:36:34.418Z,11.30
2022-11-16T04:39:01.324Z,11.30
2022-11-16T04:41:48.046Z,11.30
2022-11-16T04:44:14.917Z,11.20
2022-11-16T04:47:00.133Z,11.20
2022-11-16T04:49:27.027Z,11.20
2022-11-16T04:51:54.453Z,11.10
2022-11-16T04:54:21.448Z,11.10
2022-11-16T04:56:48.311Z,11.10
2022-11-16T04:59:15.300Z,11.10
2022-11-16T05:02:00.660Z,11.00
2022-11-16T05:04:27.363Z,11.00
2022-11-16T05:06:54.266Z,11.00
2022-11-16T05:09:21.318Z,11.00
2022-11-16T05:11:48.036Z,10.90
2022-11-16T05:14:14.764Z,10.90
2022-11-16T05:16:41.519Z,10.90
2022-11-16T05:19:26.740Z,10.80
2022-11-16T05:21:53.580Z,10.80
2022-11-16T05:24:35.456Z,10.80
2022-11-16T05:27:08.514Z,10.80
2022-11-16T05:29:35.678Z,10.70
2022-11-16T05:32:03.182Z,10.70
2022-11-16T05:34:30.062Z,10.70
2022-11-16T05:36:57.811Z,10.70
2022-11-16T05:39:25.576Z,10.60
2022-11-16T05:41:53.082Z,10.60
2022-11-16T05:44:19.900Z,10.60
2022-11-16T05:46:47.171Z,10.60
2022-11-16T05:49:14.809Z,10.60
2022-11-16T05:51:44.432Z,10.50
2022-11-16T05:54:17.709Z,10.50
2022-11-16T05:56:45.052Z,10.60
2022-11-16T05:59:17.444Z,10.50
2022-11-16T06:01:45.020Z,10.50
2022-11-16T06:04:12.404Z,10.50
2022-11-16T06:06:39.629Z,10.40
2022-11-16T06:09:07.211Z,10.40
2022-11-16T06:11:36.031Z,10.40
2022-11-16T06:14:03.523Z,10.30
2022-11-16T06:16:30.445Z,10.30
2022-11-16T06:19:00.121Z,10.30
2022-11-16T06:21:27.109Z,10.30
2022-11-16T06:23:54.318Z,10.30
2022-11-16T06:26:21.111Z,10.30
2022-11-16T06:28:50.676Z,10.20
2022-11-16T06:31:17.649Z,10.20
2022-11-16T06:33:44.622Z,10.10
2022-11-16T06:36:11.408Z,10.10
2022-11-16T06:38:38.506Z,10.10
2022-11-16T06:41:05.538Z,10.10
2022-11-16T06:43:32.277Z,10.00
2022-11-16T06:46:02.313Z,9.90
2022-11-16T06:48:30.764Z,9.90
2022-11-16T06:50:57.669Z,9.90
2022-11-16T06:53:28.902Z,9.80
2022-11-16T06:56:00.232Z,9.70
2022-11-16T06:58:29.664Z,9.60
2022-11-16T07:00:56.404Z,9.60
2022-11-16T07:03:23.228Z,9.60
2022-11-16T07:05:50.061Z,9.60
2022-11-16T07:08:16.934Z,9.50
2022-11-16T07:10:43.714Z,9.50
2022-11-16T07:13:10.577Z,9.40
2022-11-16T07:15:37.365Z,9.40
2022-11-16T07:18:06.018Z,9.30
2022-11-16T07:20:33.477Z,9.30
2022-11-16T07:23:01.562Z,9.30
2022-11-16T07:25:28.490Z,9.30
2022-11-16T07:27:55.339Z,9.30
2022-11-16T07:30:25.292Z,9.30
2022-11-16T07:32:56.347Z,9.20
2022-11-16T07:35:23.399Z,9.30
2022-11-16T07:37:53.029Z,9.30
2022-11-16T07:40:20.784Z,9.20
2022-11-16T07:42:48.010Z,9.20
2022-11-16T07:45:14.851Z,9.20
2022-11-16T07:47:44.619Z,9.20
2022-11-16T07:50:11.447Z,9.20
2022-11-16T07:52:38.327Z,9.20
2022-11-16T07:55:05.867Z,9.20
2022-11-16T07:57:32.652Z,9.30
2022-11-16T07:59:59.477Z,9.30
2022-11-16T08:02:26.239Z,9.30
2022-11-16T08:04:52.966Z,9.30
2022-11-16T08:07:19.773Z,9.30
2022-11-16T08:09:46.540Z,9.30
2022-11-16T08:12:13.418Z,9.40
2022-11-16T08:14:40.192Z,9.60
2022-11-16T08:17:08.416Z,10.10
2022-11-16T08:19:36.578Z,10.70
2022-11-16T08:22:13.137Z,11.40
2022-11-16T08:24:40.007Z,12.00
2022-11-16T08:27:06.829Z,12.30
2022-11-16T08:29:42.247Z,12.70
2022-11-16T08:32:09.020Z,13.10
2022-11-16T08:34:35.757Z,13.50
2022-11-16T08:37:02.494Z,13.90
2022-11-16T08:39:29.463Z,14.20
2022-11-16T08:41:56.276Z,14.70
2022-11-16T08:44:23.027Z,15.20
2022-11-16T08:46:49.802Z,14.60
2022-11-16T08:49:16.547Z,13.60
2022-11-16T08:51:43.273Z,12.90
2022-11-16T08:54:10.432Z,12.40
2022-11-16T08:56:37.342Z,12.00
2022-11-16T08:59:04.282Z,11.80
2022-11-16T09:01:32.866Z,11.60
2022-11-16T09:04:00.571Z,11.50
2022-11-16T09:06:28.013Z,11.40
2022-11-16T09:08:55.157Z,11.30
2022-11-16T09:11:23.970Z,11.30
2022-11-16T09:13:53.034Z,11.30
2022-11-16T09:16:21.430Z,11.30
2022-11-16T09:18:50.494Z,11.30
2022-11-16T09:21:22.414Z,11.40
2022-11-16T09:23:50.343Z,11.40
2022-11-16T09:26:21.244Z,11.60
2022-11-16T09:28:53.214Z,11.90
2022-11-16T09:31:23.339Z,12.20
2022-11-16T09:33:51.020Z,12.40
2022-11-16T09:36:17.841Z,12.40
2022-11-16T09:41:38.315Z,12.30
2022-11-16T09:44:20.103Z,12.30
2022-11-16T09:46:52.992Z,12.20
2022-11-16T09:49:26.174Z,12.10
2022-11-16T09:52:00.254Z,12.00
2022-11-16T09:54:31.731Z,12.10
2022-11-16T09:56:59.858Z,12.50
2022-11-16T09:59:36.546Z,12.60
2022-11-16T10:02:24.617Z,12.60
2022-11-16T10:05:03.163Z,12.60
2022-11-16T10:07:44.715Z,13.00
2022-11-16T10:10:20.722Z,13.50
2022-11-16T10:13:06.122Z,13.60
2022-11-16T10:15:43.558Z,13.40
2022-11-16T10:18:32.765Z,13.70
2022-11-16T10:21:25.818Z,14.40
2022-11-16T10:24:16.653Z,14.30
2022-11-16T10:27:05.358Z,14.60
2022-11-16T10:30:09.170Z,15.00
2022-11-16T10:32:52.038Z,14.90
2022-11-16T10:35:23.084Z,14.70
2022-11-16T10:37:51.764Z,14.60
2022-11-16T10:40:37.118Z,15.00
2022-11-16T10:43:13.442Z,14.70
2022-11-16T10:45:50.709Z,14.60
2022-11-16T10:48:31.484Z,14.40
2022-11-16T10:50:58.310Z,14.50
2022-11-16T10:53:35.958Z,15.00
2022-11-16T10:56:25.626Z,15.00
2022-11-16T10:59:00.533Z,14.90
2022-11-16T11:01:32.013Z,15.10
2022-11-16T11:04:13.618Z,15.70
2022-11-16T11:06:40.539Z,16.10
2022-11-16T11:09:24.695Z,16.50
2022-11-16T11:12:40.674Z,16.80
2022-11-16T11:15:07.681Z,17.10
2022-11-16T11:17:36.257Z,17.60
2022-11-16T11:20:15.241Z,17.60
2022-11-16T11:22:47.508Z,17.90
2022-11-16T11:25:32.377Z,18.30
2022-11-16T11:28:27.758Z,18.30
2022-11-16T11:31:00.474Z,17.90
2022-11-16T11:33:33.268Z,18.10
2022-11-16T11:36:07.630Z,17.90
2022-11-16T11:38:54.411Z,18.10
2022-11-16T11:41:21.525Z,18.00
2022-11-16T11:44:19.320Z,18.00
2022-11-16T11:49:50.115Z,17.20
2022-11-16T11:52:26.727Z,16.90
2022-11-16T11:54:55.989Z,16.40
2022-11-16T11:57:24.919Z,16.20
2022-11-16T11:59:54.541Z,15.90
2022-11-16T12:02:30.260Z,15.70
2022-11-16T12:05:23.238Z,15.40
2022-11-16T12:07:50.408Z,15.30
2022-11-16T12:10:43.281Z,15.10
2022-11-16T12:13:27.928Z,14.80
2022-11-16T12:16:12.705Z,14.50
2022-11-16T12:19:17.398Z,14.30
2022-11-16T12:22:19.414Z,14.20
2022-11-16T12:25:27.689Z,14.00
2022-11-16T12:28:13.940Z,13.90
2022-11-16T12:31:06.053Z,13.90
2022-11-16T12:33:54.960Z,13.80
2022-11-16T12:36:32.866Z,13.60
2022-11-16T12:39:26.947Z,13.40
2022-11-16T12:42:01.805Z,13.40
2022-11-16T12:45:16.416Z,13.50
2022-11-16T12:48:17.309Z,13.70
2022-11-16T12:51:15.121Z,13.90
2022-11-16T12:54:01.992Z,13.80
2022-11-16T12:57:14.626Z,13.80
2022-11-16T13:00:00.516Z,13.60
2022-11-16T13:02:45.776Z,13.50
2022-11-16T13:05:21.148Z,13.40
2022-11-16T13:07:57.044Z,13.30
2022-11-16T13:10:29.595Z,13.20
2022-11-16T13:15:54.644Z,13.00
2022-11-16T13:18:23.141Z,13.30
2022-11-16T13:20:59.841Z,13.70
2022-11-16T13:23:52.049Z,13.80
2022-11-16T13:26:35.872Z,13.90
2022-11-16T13:29:22.045Z,13.60
2022-11-16T13:32:27.456Z,13.40
2022-11-16T13:34:55.049Z,13.20
2022-11-16T13:37:39.761Z,13.20
2022-11-16T13:40:06.683Z,13.10
2022-11-16T13:42:42.622Z,13.00
2022-11-16T13:45:22.951Z,13.00
2022-11-16T13:47:55.611Z,12.90
2022-11-16T13:50:33.038Z,12.80
2022-11-16T13:56:27.374Z,13.10
2022-11-16T13:58:58.344Z,13.10
2022-11-16T14:01:26.670Z,13.10
2022-11-16T14:04:46.056Z,12.90
2022-11-16T14:07:36.770Z,12.90
2022-11-16T14:10:05.867Z,13.00
2022-11-16T14:12:39.001Z,12.90
2022-11-16T14:15:19.649Z,12.80
2022-11-16T14:18:04.479Z,12.80
2022-11-16T14:20:40.286Z,12.90
2022-11-16T14:23:42.664Z,12.90
2022-11-16T14:26:24.362Z,12.70
2022-11-16T14:29:16.824Z,12.50
2022-11-16T14:31:54.129Z,12.30
2022-11-16T14:34:25.604Z,12.30
2022-11-16T14:36:53.358Z,12.20
2022-11-16T14:39:44.000Z,12.10
2022-11-16T14:42:21.773Z,12.10
2022-11-16T14:44:50.325Z,12.10
2022-11-16T14:47:28.800Z,12.00
2022-11-16T14:49:56.578Z,12.00
2022-11-16T14:52:34.618Z,12.00
2022-11-16T14:55:06.575Z,11.90
2022-11-16T14:57:37.914Z,11.90
2022-11-16T15:00:25.825Z,11.80
2022-11-16T15:03:02.131Z,11.70
2022-11-16T15:05:36.126Z,11.50
2022-11-16T15:08:12.216Z,11.40
2022-11-16T15:10:52.134Z,11.30
2022-11-16T15:13:23.048Z,11.20
2022-11-16T15:16:17.238Z,11.20
2022-11-16T15:19:04.077Z,11.10
2022-11-16T15:21:31.063Z,11.00
2022-11-16T15:26:44.842Z,10.90
2022-11-16T15:29:17.544Z,10.80
2022-11-16T15:31:50.957Z,10.70
2022-11-16T15:34:19.625Z,10.60
2022-11-16T15:36:52.236Z,10.50
2022-11-16T15:39:23.877Z,10.50
2022-11-16T15:41:52.714Z,10.40
2022-11-16T15:44:22.166Z,10.40
2022-11-16T15:46:53.209Z,10.30
2022-11-16T15:49:30.499Z,10.20
2022-11-16T15:51:58.580Z,10.20
2022-11-16T15:54:30.306Z,10.20
2022-11-16T15:57:07.918Z,10.10
2022-11-16T15:59:36.800Z,10.10
2022-11-16T16:02:07.065Z,10.00
2022-11-16T16:04:36.453Z,9.90
2022-11-16T16:07:03.491Z,9.90
2022-11-16T16:09:39.209Z,9.90
2022-11-16T16:12:47.720Z,9.80
2022-11-16T16:15:33.756Z,9.80
2022-11-16T16:18:11.017Z,9.80
2022-11-16T16:20:45.485Z,9.70
2022-11-16T16:23:16.429Z,9.70
2022-11-16T16:25:49.039Z,9.70
2022-11-16T16:28:17.260Z,9.60
2022-11-16T16:30:44.067Z,9.60
2022-11-16T16:33:19.664Z,9.60
2022-11-16T16:35:49.772Z,9.50
2022-11-16T16:38:16.681Z,9.50
2022-11-16T16:40:43.549Z,9.50
2022-11-16T16:43:13.109Z,9.50
2022-11-16T16:45:44.283Z,9.40
2022-11-16T16:48:14.246Z,9.40
2022-11-16T16:50:41.147Z,9.40
2022-11-16T16:53:16.747Z,9.30
2022-11-16T16:55:44.345Z,9.30
2022-11-16T16:58:22.018Z,9.30
2022-11-16T17:01:00.898Z,9.30
2022-11-16T17:03:28.127Z,9.20
2022-11-16T17:06:00.966Z,9.20
2022-11-16T17:08:39.896Z,9.20
2022-11-16T17:11:06.698Z,9.20
2022-11-16T17:13:42.250Z,9.20
2022-11-16T17:16:10.481Z,9.20
2022-11-16T17:18:56.451Z,9.20
2022-11-16T17:21:23.232Z,9.20
2022-11-16T17:23:50.307Z,9.20
2022-11-16T17:26:20.408Z,9.10
2022-11-16T17:28:47.244Z,9.10
2022-11-16T17:31:17.902Z,9.10
2022-11-16T17:33:51.662Z,9.00
2022-11-16T17:36:21.710Z,9.00
2022-11-16T17:38:48.499Z,9.00
2022-11-16T17:41:36.825Z,8.90
2022-11-16T17:44:06.824Z,8.90
2022-11-16T17:46:34.040Z,8.90
2022-11-16T17:49:00.901Z,8.90
2022-11-16T17:51:33.523Z,8.90
2022-11-16T17:54:00.924Z,8.80
2022-11-16T17:56:28.965Z,8.80
2022-11-16T17:59:03.000Z,8.70
2022-11-16T18:01:41.436Z,8.70
2022-11-16T18:04:08.332Z,8.70
2022-11-16T18:06:35.629Z,8.70
2022-11-16T18:09:05.054Z,8.70
2022-11-16T18:11:31.849Z,8.90
2022-11-16T18:14:05.526Z,9.00
2022-11-16T18:16:33.230Z,9.10
2022-11-16T18:19:06.954Z,9.20
2022-11-16T18:21:43.283Z,9.20
2022-11-16T18:24:13.868Z,9.30
2022-11-16T18:26:43.894Z,9.30
2022-11-16T18:29:15.397Z,9.40
2022-11-16T18:31:42.147Z,9.40
2022-11-16T18:34:11.884Z,9.40
2022-11-16T18:36:38.692Z,9.50
2022-11-16T18:39:08.018Z,9.50
2022-11-16T18:41:34.765Z,9.60
2022-11-16T18:44:02.572Z,9.50
2022-11-16T18:46:46.374Z,9.40
2022-11-16T18:49:30.696Z,9.40
2022-11-16T18:52:06.098Z,9.50
2022-11-16T18:54:35.988Z,9.40
2022-11-16T18:57:02.973Z,9.40
2022-11-16T18:59:38.801Z,9.40
2022-11-16T19:02:10.853Z,9.30
2022-11-16T19:04:39.985Z,9.30
2022-11-16T19:09:56.578Z,9.30
2022-11-16T19:12:23.375Z,9.20
2022-11-16T19:14:50.183Z,9.20
2022-11-16T19:17:18.688Z,9.20
2022-11-16T19:19:45.630Z,9.30
2022-11-16T19:22:12.520Z,9.30
2022-11-16T19:24:42.141Z,9.30
2022-11-16T19:27:08.891Z,9.30
2022-11-16T19:29:35.939Z,9.30
2022-11-16T19:32:10.591Z,9.30
2022-11-16T19:34:39.858Z,9.30
2022-11-16T19:37:06.898Z,9.30
2022-11-16T19:39:36.883Z,9.40
2022-11-16T19:42:03.786Z,9.40
2022-11-16T19:44:39.384Z,9.40
2022-11-16T19:47:08.678Z,9.40
2022-11-16T19:49:35.777Z,9.40
2022-11-16T19:52:02.638Z,9.40
2022-11-16T19:54:32.356Z,9.40
2022-11-16T19:57:02.432Z,9.40
2022-11-16T19:59:35.213Z,9.40
2022-11-16T20:02:02.384Z,9.50
2022-11-16T20:04:34.000Z,9.50
2022-11-16T20:07:01.594Z,9.60
2022-11-16T20:09:28.396Z,9.60
2022-11-16T20:11:59.417Z,9.60
2022-11-16T20:14:26.382Z,9.70
2022-11-16T20:16:53.225Z,9.70
2022-11-16T20:19:25.278Z,9.70
2022-11-16T20:21:53.242Z,9.70
2022-11-16T20:24:20.146Z,9.70
2022-11-16T20:26:53.623Z,9.70
2022-11-16T20:29:26.374Z,9.70
2022-11-16T20:31:56.140Z,9.70
2022-11-16T20:34:23.045Z,9.70
2022-11-16T20:37:01.703Z,9.80
2022-11-16T20:39:31.178Z,9.80
2022-11-16T20:42:03.412Z,9.80
2022-11-16T20:44:33.023Z,9.80
2022-11-16T20:46:59.830Z,9.80
2022-11-16T20:49:26.889Z,9.80
2022-11-16T20:51:53.675Z,9.80
2022-11-16T20:54:20.445Z,9.80
2022-11-16T20:56:49.669Z,9.80
2022-11-16T20:59:16.832Z,9.80
2022-11-16T21:01:47.778Z,9.80
2022-11-16T21:04:18.404Z,9.90
2022-11-16T21:07:08.299Z,9.90
2022-11-16T21:09:55.038Z,9.90
2022-11-16T21:12:42.884Z,10.00
2022-11-16T21:15:10.671Z,10.00
2022-11-16T21:17:37.574Z,10.00
2022-11-16T21:20:28.991Z,10.00
2022-11-16T21:22:51.440Z,10.00
2022-11-16T21:25:18.321Z,10.00
2022-11-16T21:27:46.274Z,10.00
2022-11-16T21:30:13.845Z,10.00
2022-11-16T21:32:40.756Z,10.00
2022-11-16T21:35:07.840Z,10.10
2022-11-16T21:37:34.538Z,10.10
2022-11-16T21:40:01.485Z,10.10
2022-11-16T21:42:28.440Z,10.10
2022-11-16T21:44:55.225Z,10.10
2022-11-16T21:47:22.227Z,10.10
2022-11-16T21:50:16.942Z,10.10
2022-11-16T21:52:38.610Z,10.10
2022-11-16T21:55:05.702Z,10.10
2022-11-16T21:57:32.858Z,10.10
2022-11-16T22:00:01.366Z,10.10
2022-11-16T22:02:28.308Z,10.10
2022-11-16T22:05:17.019Z,10.10
2022-11-16T22:07:43.823Z,10.10
2022-11-16T22:10:12.032Z,10.10
2022-11-16T22:12:39.420Z,10.10
2022-11-16T22:15:07.382Z,10.10
2022-11-16T22:17:34.155Z,10.10
2022-11-16T22:20:20.964Z,10.10
2022-11-16T22:22:47.947Z,10.10
2022-11-16T22:25:14.702Z,10.10
2022-11-16T22:27:58.672Z,10.20
2022-11-16T22:30:28.307Z,10.20
2022-11-16T22:32:58.391Z,10.20
2022-11-16T22:35:28.555Z,10.10
2022-11-16T22:37:59.349Z,10.10
2022-11-16T22:40:26.169Z,10.20
2022-11-16T22:42:57.582Z,10.10
2022-11-16T22:45:25.335Z,10.10
2022-11-16T22:47:54.926Z,10.10
2022-11-16T22:50:24.223Z,10.10
2022-11-16T22:52:51.132Z,10.10
2022-11-16T22:58:02.128Z,10.10
2022-11-16T23:00:28.908Z,10.10
2022-11-16T23:02:55.738Z,10.00
2022-11-16T23:05:22.589Z,10.00
2022-11-16T23:07:49.435Z,10.00
2022-11-16T23:10:16.276Z,9.90
2022-11-16T23:13:01.866Z,9.90
2022-11-16T23:15:47.731Z,9.90
2022-11-16T23:18:14.802Z,9.90
2022-11-16T23:21:00.201Z,9.90
2022-11-16T23:23:45.389Z,9.80
2022-11-16T23:26:51.267Z,9.80
2022-11-16T23:29:18.243Z,9.70
2022-11-16T23:31:45.524Z,9.60
2022-11-16T23:34:12.339Z,9.60
2022-11-16T23:36:39.223Z,9.60
2022-11-16T23:39:06.040Z,9.50
2022-11-16T23:41:51.605Z,9.50
2022-11-16T23:44:18.330Z,9.50
2022-11-16T23:46:45.750Z,9.40
2022-11-16T23:49:12.670Z,9.40
2022-11-16T23:51:39.454Z,9.40
2022-11-16T23:54:07.382Z,9.40
2022-11-16T23:56:34.146Z,9.40
2022-11-16T23:59:00.892Z,9.40
